Time;durP1;ratioP1;P1;durP2;ratioP2;P2;SDS_P1;SDS_P2;PMS_P1;PMS_P2;Temp;Humidity;BMP_temperature;BMP_pressure;BME280_temperature;BME280_humidity;BME280_pressure;Samples;Min_cycle;Max_cycle;Signal;HPM_P1;HPM_P2
2023/07/30 00:00:50;;;;;;;7.90;2.08;;;15.90;99.90;;;;;;5064675;28;20059;-66
2023/07/30 00:03:16;;;;;;;4.10;2.17;;;15.80;99.90;;;;;;5048477;28;20091;-65
2023/07/30 00:05:42;;;;;;;8.20;2.25;;;15.70;99.90;;;;;;5032079;28;20045;-65
2023/07/30 00:08:08;;;;;;;7.35;2.15;;;15.70;99.90;;;;;;5059055;28;20505;-65
2023/07/30 00:10:35;;;;;;;7.38;2.22;;;15.60;99.90;;;;;;5059676;28;20043;-66
2023/07/30 00:13:01;;;;;;;8.73;3.30;;;15.50;99.90;;;;;;5066124;28;20502;-66
2023/07/30 00:15:27;;;;;;;6.47;2.45;;;15.40;99.90;;;;;;5066400;28;20045;-66
2023/07/30 00:17:52;;;;;;;8.95;2.40;;;15.30;99.90;;;;;;5046346;28;20127;-66
2023/07/30 00:20:18;;;;;;;8.60;2.25;;;15.30;99.90;;;;;;5054036;28;20047;-72
2023/07/30 00:22:44;;;;;;;10.57;2.65;;;15.30;99.90;;;;;;5066161;28;20045;-66
2023/07/30 00:25:10;;;;;;;5.47;2.10;;;15.20;99.90;;;;;;5066053;28;20052;-66
2023/07/30 00:27:35;;;;;;;12.95;2.58;;;15.10;99.90;;;;;;5048482;28;20045;-66
2023/07/30 00:30:01;;;;;;;8.88;2.72;;;15.20;99.90;;;;;;5066071;28;20055;-69
2023/07/30 00:32:27;;;;;;;8.18;2.33;;;15.10;99.90;;;;;;5050994;28;20040;-66
2023/07/30 00:34:52;;;;;;;7.25;2.42;;;15.10;99.90;;;;;;5069017;28;20051;-66
2023/07/30 00:37:18;;;;;;;8.43;2.88;;;15.10;99.90;;;;;;5057300;28;20072;-66
2023/07/30 00:39:44;;;;;;;9.65;2.60;;;15.10;99.90;;;;;;5070661;28;20452;-65
2023/07/30 00:42:10;;;;;;;10.25;2.70;;;15.10;99.90;;;;;;5050913;28;20409;-66
2023/07/30 00:44:36;;;;;;;8.30;3.13;;;15.10;99.90;;;;;;5051855;28;20048;-66
2023/07/30 00:47:02;;;;;;;11.70;2.92;;;15.10;99.90;;;;;;5069497;28;20512;-65
2023/07/30 00:49:27;;;;;;;9.90;2.28;;;15.10;99.90;;;;;;5052380;28;20075;-65
2023/07/30 00:51:56;;;;;;;10.82;2.83;;;15.10;99.90;;;;;;5069894;28;20044;-80
2023/07/30 00:54:22;;;;;;;8.65;2.85;;;15.20;99.90;;;;;;5052415;28;20044;-81
2023/07/30 00:56:53;;;;;;;9.57;2.60;;;15.10;99.90;;;;;;5070290;28;20052;-90
2023/07/30 00:59:22;;;;;;;7.72;2.45;;;15.10;99.90;;;;;;5056191;28;20040;-65
2023/07/30 01:01:50;;;;;;;8.98;3.00;;;15.10;99.90;;;;;;5070207;28;20059;-66
2023/07/30 01:04:16;;;;;;;9.52;3.08;;;15.00;99.90;;;;;;5051064;28;20040;-66
2023/07/30 01:06:43;;;;;;;4.50;2.35;;;15.10;99.90;;;;;;5069804;28;20040;-66
2023/07/30 01:09:09;;;;;;;7.53;2.95;;;15.10;99.90;;;;;;5067291;28;20091;-86
2023/07/30 01:11:37;;;;;;;10.38;3.05;;;15.00;99.90;;;;;;5058735;28;20412;-67
2023/07/30 01:14:05;;;;;;;10.15;3.35;;;15.00;99.90;;;;;;5068879;28;20036;-67
2023/07/30 01:16:31;;;;;;;8.20;3.17;;;15.00;99.90;;;;;;5069649;28;20518;-66
2023/07/30 01:18:58;;;;;;;7.85;2.95;;;15.00;99.90;;;;;;5069470;28;20440;-70
2023/07/30 01:21:24;;;;;;;12.23;3.30;;;15.00;99.90;;;;;;5069752;28;20040;-66
2023/07/30 01:23:50;;;;;;;8.07;3.30;;;15.00;99.90;;;;;;5051383;28;20049;-68
2023/07/30 01:26:24;;;;;;;9.23;3.15;;;15.00;99.90;;;;;;5069403;28;20084;-67
2023/07/30 01:28:56;;;;;;;15.00;3.38;;;15.00;99.90;;;;;;5051615;28;20564;-92
2023/07/30 01:31:26;;;;;;;9.65;3.22;;;15.00;99.90;;;;;;5051819;28;20075;-81
2023/07/30 01:33:54;;;;;;;9.35;2.97;;;15.00;99.90;;;;;;5034766;28;20375;-89
2023/07/30 01:36:21;;;;;;;9.70;2.97;;;15.00;99.90;;;;;;5051376;28;20097;-69
2023/07/30 01:38:49;;;;;;;6.93;2.40;;;15.00;99.90;;;;;;5069852;28;20457;-71
2023/07/30 01:41:14;;;;;;;8.90;2.85;;;15.00;99.90;;;;;;5054575;28;20098;-79
2023/07/30 01:43:40;;;;;;;6.70;3.08;;;14.90;99.90;;;;;;5069399;28;20048;-88
2023/07/30 01:46:06;;;;;;;5.78;2.58;;;15.00;99.90;;;;;;5068825;28;20061;-66
2023/07/30 01:48:32;;;;;;;8.55;3.28;;;14.90;99.90;;;;;;5051444;28;20067;-69
2023/07/30 01:50:58;;;;;;;6.68;2.72;;;14.90;99.90;;;;;;5069527;28;20043;-67
2023/07/30 01:53:24;;;;;;;7.45;2.90;;;15.00;99.90;;;;;;5069093;28;20040;-66
2023/07/30 01:55:49;;;;;;;10.23;2.58;;;15.00;99.90;;;;;;5068752;28;20051;-91
2023/07/30 01:58:15;;;;;;;16.15;3.83;;;15.00;99.90;;;;;;5068575;28;20048;-67
2023/07/30 02:00:41;;;;;;;7.45;2.50;;;15.00;99.90;;;;;;5069144;28;20044;-66
2023/07/30 02:03:07;;;;;;;10.05;2.85;;;15.10;99.90;;;;;;5051998;28;20532;-66
2023/07/30 02:05:33;;;;;;;10.52;2.63;;;15.10;99.90;;;;;;5068162;28;20494;-66
2023/07/30 02:07:58;;;;;;;4.60;2.38;;;15.10;99.90;;;;;;5034184;28;20040;-66
2023/07/30 02:10:25;;;;;;;9.98;2.83;;;15.10;99.90;;;;;;5055718;28;20053;-66
2023/07/30 02:12:51;;;;;;;15.48;2.85;;;15.20;99.90;;;;;;5067255;28;20037;-66
2023/07/30 02:15:17;;;;;;;14.73;3.53;;;15.20;99.90;;;;;;5067992;28;20058;-66
2023/07/30 02:17:43;;;;;;;14.43;2.83;;;15.20;99.90;;;;;;5068744;28;20078;-79
2023/07/30 02:20:09;;;;;;;9.15;2.92;;;15.20;99.90;;;;;;5049717;28;20402;-78
2023/07/30 02:22:34;;;;;;;9.13;3.17;;;15.20;99.90;;;;;;5067945;28;20579;-65
2023/07/30 02:25:00;;;;;;;11.00;2.72;;;15.20;99.90;;;;;;5061783;28;20068;-80
2023/07/30 02:27:26;;;;;;;15.65;3.13;;;15.20;99.90;;;;;;5045528;28;20414;-84
2023/07/30 02:29:52;;;;;;;13.32;3.03;;;15.30;99.90;;;;;;5068307;28;20090;-67
2023/07/30 02:32:17;;;;;;;11.55;3.20;;;15.30;99.90;;;;;;5050259;28;20069;-66
2023/07/30 02:34:43;;;;;;;7.05;2.95;;;15.30;99.90;;;;;;5068054;28;20051;-83
2023/07/30 02:37:09;;;;;;;11.02;2.85;;;15.30;99.90;;;;;;5049727;28;20041;-70
2023/07/30 02:39:34;;;;;;;9.70;2.65;;;15.30;99.90;;;;;;5067780;28;20051;-66
2023/07/30 02:42:00;;;;;;;9.43;2.47;;;15.30;99.90;;;;;;5068266;28;20044;-66
2023/07/30 02:44:26;;;;;;;14.10;3.45;;;15.30;99.90;;;;;;5067456;28;20429;-66
2023/07/30 02:46:52;;;;;;;14.40;3.28;;;15.30;99.90;;;;;;5067830;28;20467;-65
2023/07/30 02:49:17;;;;;;;14.88;3.15;;;15.30;99.90;;;;;;5067866;28;20052;-66
2023/07/30 02:51:48;;;;;;;11.35;2.85;;;15.40;99.90;;;;;;5049702;28;20460;-66
2023/07/30 02:54:16;;;;;;;17.05;3.42;;;15.40;99.90;;;;;;5066937;28;20075;-74
2023/07/30 02:56:42;;;;;;;14.07;3.22;;;15.40;99.90;;;;;;5049626;28;20410;-66
2023/07/30 02:59:08;;;;;;;14.23;3.10;;;15.40;99.90;;;;;;5067458;28;20052;-66
2023/07/30 03:01:34;;;;;;;23.80;3.58;;;15.40;99.90;;;;;;5067850;28;20513;-66
2023/07/30 03:03:59;;;;;;;15.38;3.60;;;15.40;99.90;;;;;;5067837;28;20037;-73
2023/07/30 03:06:25;;;;;;;13.70;3.08;;;15.40;99.90;;;;;;5032727;28;20140;-65
2023/07/30 03:08:51;;;;;;;13.18;3.28;;;15.40;99.90;;;;;;5067138;28;20116;-66
2023/07/30 03:11:16;;;;;;;14.55;3.55;;;15.50;99.90;;;;;;5059460;28;20052;-66
2023/07/30 03:13:42;;;;;;;12.55;2.80;;;15.50;99.90;;;;;;5048812;28;20070;-66
2023/07/30 03:16:08;;;;;;;14.75;3.05;;;15.50;99.90;;;;;;5067204;28;20041;-66
2023/07/30 03:18:33;;;;;;;11.40;3.40;;;15.50;99.90;;;;;;5066451;28;20040;-65
2023/07/30 03:21:00;;;;;;;15.00;2.88;;;15.40;99.90;;;;;;5067370;28;20111;-66
2023/07/30 03:23:26;;;;;;;16.48;2.97;;;15.40;99.90;;;;;;5067022;28;20056;-66
2023/07/30 03:25:52;;;;;;;15.70;3.33;;;15.40;99.90;;;;;;5067099;28;20102;-66
2023/07/30 03:28:18;;;;;;;15.18;3.03;;;15.40;99.90;;;;;;5066411;28;20040;-66
2023/07/30 03:30:43;;;;;;;20.45;3.50;;;15.50;99.90;;;;;;5048912;28;20371;-65
2023/07/30 03:33:09;;;;;;;11.20;3.15;;;15.40;99.90;;;;;;5066817;28;20045;-86
2023/07/30 03:35:35;;;;;;;12.27;3.17;;;15.40;99.90;;;;;;5066383;28;20127;-66
2023/07/30 03:38:01;;;;;;;12.82;3.00;;;15.40;99.90;;;;;;5049294;28;20048;-65
2023/07/30 03:40:26;;;;;;;14.25;2.67;;;15.40;99.90;;;;;;5066230;28;20037;-66
2023/07/30 03:42:53;;;;;;;14.45;3.05;;;15.30;99.90;;;;;;5048476;28;20080;-66
2023/07/30 03:45:19;;;;;;;12.93;2.90;;;15.40;99.90;;;;;;5066573;28;20858;-66
2023/07/30 03:47:44;;;;;;;12.82;3.42;;;15.30;99.90;;;;;;5032281;28;20044;-66
2023/07/30 03:50:10;;;;;;;15.25;3.05;;;15.30;99.90;;;;;;5066980;28;20041;-66
2023/07/30 03:52:36;;;;;;;12.80;3.17;;;15.20;99.90;;;;;;5066031;28;20048;-66
2023/07/30 03:55:02;;;;;;;13.02;2.85;;;15.20;99.90;;;;;;5048810;28;20470;-66
2023/07/30 03:57:27;;;;;;;12.77;2.60;;;15.20;99.90;;;;;;5048287;28;20044;-66
2023/07/30 03:59:53;;;;;;;11.50;3.20;;;15.20;99.90;;;;;;5066737;28;20040;-66
2023/07/30 04:02:19;;;;;;;15.05;3.15;;;15.20;99.90;;;;;;5048006;28;20055;-66
2023/07/30 04:04:46;;;;;;;10.70;2.63;;;15.20;99.90;;;;;;5048620;28;20052;-65
2023/07/30 04:07:11;;;;;;;10.07;2.45;;;15.20;99.90;;;;;;5065826;28;20410;-66
2023/07/30 04:09:37;;;;;;;9.77;2.53;;;15.20;99.90;;;;;;5060108;28;20036;-66
2023/07/30 04:12:03;;;;;;;14.88;2.78;;;15.20;99.90;;;;;;5058381;28;20052;-66
2023/07/30 04:14:29;;;;;;;12.82;2.88;;;15.10;99.90;;;;;;5065534;28;20048;-66
2023/07/30 04:16:55;;;;;;;16.17;2.72;;;15.20;99.90;;;;;;5066433;28;20045;-66
2023/07/30 04:19:20;;;;;;;13.80;2.78;;;15.20;99.90;;;;;;5066310;28;20548;-66
2023/07/30 04:21:46;;;;;;;13.25;3.08;;;15.10;99.90;;;;;;5066678;28;20041;-66
2023/07/30 04:24:12;;;;;;;11.63;2.92;;;15.10;99.90;;;;;;5066403;28;20083;-66
2023/07/30 04:26:37;;;;;;;11.52;2.33;;;15.10;99.90;;;;;;5065975;28;20133;-66
2023/07/30 04:29:03;;;;;;;12.88;3.85;;;15.20;99.90;;;;;;5048742;28;20075;-65
2023/07/30 04:31:29;;;;;;;14.45;2.40;;;15.20;99.90;;;;;;5047736;28;20425;-65
2023/07/30 04:33:55;;;;;;;14.63;2.75;;;15.10;99.90;;;;;;5065986;28;20041;-65
2023/07/30 04:36:21;;;;;;;12.20;2.72;;;15.10;99.90;;;;;;5047971;28;20060;-66
2023/07/30 04:38:46;;;;;;;9.63;3.10;;;15.20;99.90;;;;;;5066634;28;20044;-65
2023/07/30 04:41:12;;;;;;;9.65;2.45;;;15.20;99.90;;;;;;5066270;28;20498;-66
2023/07/30 04:43:38;;;;;;;9.27;2.65;;;15.20;99.90;;;;;;5065387;28;20421;-66
2023/07/30 04:46:04;;;;;;;9.98;2.17;;;15.30;99.90;;;;;;5065506;28;20053;-66
2023/07/30 04:48:29;;;;;;;10.52;2.40;;;15.30;99.90;;;;;;5047542;28;20090;-66
2023/07/30 04:50:55;;;;;;;8.27;2.17;;;15.30;99.90;;;;;;5066221;28;20037;-66
2023/07/30 04:53:21;;;;;;;16.13;2.92;;;15.30;99.90;;;;;;5066054;28;20139;-66
2023/07/30 04:55:46;;;;;;;7.60;2.03;;;15.30;99.90;;;;;;5046809;28;20044;-66
2023/07/30 04:58:12;;;;;;;11.13;2.80;;;15.30;99.90;;;;;;5066032;28;20084;-65
2023/07/30 05:00:38;;;;;;;11.10;2.53;;;15.30;99.90;;;;;;5013514;28;20040;-66
2023/07/30 05:03:04;;;;;;;15.18;2.38;;;15.20;99.90;;;;;;5035133;28;20199;-65
2023/07/30 05:05:29;;;;;;;13.73;2.63;;;15.30;99.90;;;;;;5063562;28;20127;-66
2023/07/30 05:07:55;;;;;;;15.35;2.90;;;15.20;99.90;;;;;;5066162;28;20047;-66
2023/07/30 05:10:21;;;;;;;7.65;2.00;;;15.20;99.90;;;;;;5057372;28;20048;-66
2023/07/30 05:12:47;;;;;;;13.05;2.35;;;15.30;99.90;;;;;;5065507;28;20371;-66
2023/07/30 05:15:13;;;;;;;15.43;2.22;;;15.40;99.90;;;;;;5065774;28;20055;-66
2023/07/30 05:17:38;;;;;;;15.45;2.78;;;15.40;99.90;;;;;;5065876;28;20485;-66
2023/07/30 05:20:05;;;;;;;13.63;2.72;;;15.50;99.90;;;;;;5069675;28;20101;-66
2023/07/30 05:22:31;;;;;;;12.15;2.63;;;15.60;99.90;;;;;;5050801;28;20053;-66
2023/07/30 05:24:56;;;;;;;12.68;2.75;;;15.60;99.90;;;;;;5069566;28;20033;-66
2023/07/30 05:27:22;;;;;;;9.27;2.60;;;15.70;99.90;;;;;;5069735;28;20033;-66
2023/07/30 05:29:48;;;;;;;17.15;2.45;;;15.80;99.90;;;;;;5050911;28;20076;-65
2023/07/30 05:32:14;;;;;;;9.93;2.40;;;15.80;99.90;;;;;;5068163;28;20056;-66
2023/07/30 05:34:39;;;;;;;12.45;2.70;;;15.80;99.90;;;;;;5068873;28;20099;-66
2023/07/30 05:37:05;;;;;;;16.38;2.92;;;16.00;99.90;;;;;;5069131;28;20510;-65
2023/07/30 05:39:31;;;;;;;11.07;2.30;;;16.10;99.90;;;;;;5068650;28;20044;-66
2023/07/30 05:41:57;;;;;;;8.68;2.50;;;16.00;99.90;;;;;;5068620;28;20174;-65
2023/07/30 05:44:22;;;;;;;11.73;2.50;;;16.10;99.90;;;;;;5068868;28;20194;-66
2023/07/30 05:46:48;;;;;;;10.70;2.63;;;16.20;99.90;;;;;;5068711;28;20157;-66
2023/07/30 05:49:14;;;;;;;13.65;3.08;;;16.20;99.90;;;;;;5068962;28;20045;-66
2023/07/30 05:51:40;;;;;;;11.70;2.38;;;16.20;99.90;;;;;;5068170;28;20056;-66
2023/07/30 05:54:06;;;;;;;13.55;2.67;;;16.20;99.90;;;;;;5068894;28;20033;-66
2023/07/30 05:56:32;;;;;;;6.50;2.05;;;16.30;99.90;;;;;;5068613;28;20048;-66
2023/07/30 05:58:57;;;;;;;8.60;2.28;;;16.30;99.90;;;;;;5069062;28;20048;-66
2023/07/30 06:01:23;;;;;;;8.38;2.03;;;16.30;99.90;;;;;;5050503;28;20052;-66
2023/07/30 06:03:49;;;;;;;8.50;2.10;;;16.30;99.90;;;;;;5063765;28;20040;-66
2023/07/30 06:06:14;;;;;;;16.10;2.20;;;16.30;99.90;;;;;;5068296;28;20506;-66
2023/07/30 06:08:40;;;;;;;7.60;2.00;;;16.30;99.90;;;;;;5044190;28;20048;-66
2023/07/30 06:11:06;;;;;;;10.60;2.35;;;16.40;99.90;;;;;;5054626;28;20123;-66
2023/07/30 06:13:32;;;;;;;7.85;2.08;;;16.40;99.90;;;;;;5068586;28;20072;-66
2023/07/30 06:15:57;;;;;;;8.15;2.00;;;16.50;99.90;;;;;;5067898;28;20044;-66
2023/07/30 06:18:23;;;;;;;10.73;1.90;;;16.40;99.90;;;;;;5068483;28;20123;-66
2023/07/30 06:20:49;;;;;;;9.20;1.90;;;16.50;99.90;;;;;;5050075;28;20061;-66
2023/07/30 06:23:15;;;;;;;14.50;1.67;;;16.60;99.90;;;;;;5033920;28;20127;-66
2023/07/30 06:25:40;;;;;;;11.10;2.30;;;16.60;99.90;;;;;;5068313;28;20061;-66
2023/07/30 06:28:06;;;;;;;6.20;1.55;;;16.60;99.90;;;;;;5050249;28;20076;-66
2023/07/30 06:30:32;;;;;;;9.32;2.20;;;16.70;99.90;;;;;;5067812;28;20526;-66
2023/07/30 06:32:58;;;;;;;11.25;2.55;;;16.70;99.90;;;;;;5066412;28;20502;-66
2023/07/30 06:35:24;;;;;;;12.35;1.98;;;16.70;99.90;;;;;;5068225;28;20100;-66
2023/07/30 06:37:51;;;;;;;12.27;2.63;;;16.80;99.90;;;;;;5067820;28;20075;-66
2023/07/30 06:40:16;;;;;;;14.45;3.65;;;16.80;99.90;;;;;;5068100;28;20051;-66
2023/07/30 06:42:42;;;;;;;6.82;2.05;;;16.80;99.90;;;;;;5067630;28;20044;-66
2023/07/30 06:45:08;;;;;;;8.80;2.45;;;16.80;99.90;;;;;;5049588;28;20494;-66
2023/07/30 06:47:34;;;;;;;11.68;2.22;;;16.80;99.90;;;;;;5067810;28;20082;-66
2023/07/30 06:50:00;;;;;;;8.48;2.17;;;16.80;99.90;;;;;;5067377;28;20498;-65
2023/07/30 06:52:25;;;;;;;11.43;2.65;;;16.80;99.90;;;;;;5067978;28;20055;-65
2023/07/30 06:54:51;;;;;;;12.93;2.42;;;16.80;99.90;;;;;;5066749;28;20125;-65
2023/07/30 06:57:17;;;;;;;13.68;2.33;;;16.80;99.90;;;;;;5049808;28;20048;-65
2023/07/30 06:59:43;;;;;;;8.85;2.22;;;16.80;99.90;;;;;;5049227;28;20044;-66
2023/07/30 07:02:08;;;;;;;11.90;2.45;;;16.80;99.90;;;;;;5049362;28;20067;-65
2023/07/30 07:04:34;;;;;;;18.65;2.97;;;16.80;99.90;;;;;;5067342;28;20037;-65
2023/07/30 07:07:03;;;;;;;13.65;2.45;;;16.80;99.90;;;;;;5048416;28;20045;-65
2023/07/30 07:09:29;;;;;;;8.05;2.00;;;16.90;99.90;;;;;;5062532;28;20080;-65
2023/07/30 07:11:54;;;;;;;10.85;2.35;;;16.80;99.90;;;;;;5040121;28;20047;-67
2023/07/30 07:14:20;;;;;;;11.25;2.05;;;16.80;99.90;;;;;;5045986;28;20044;-66
2023/07/30 07:16:48;;;;;;;10.30;2.10;;;16.80;99.90;;;;;;5048777;28;20462;-66
2023/07/30 07:19:14;;;;;;;10.32;2.05;;;16.70;99.90;;;;;;5053186;28;20049;-67
2023/07/30 07:21:40;;;;;;;10.40;2.22;;;16.80;99.90;;;;;;5067227;28;20553;-67
2023/07/30 07:24:06;;;;;;;8.38;2.00;;;16.90;99.90;;;;;;5048846;28;20550;-66
2023/07/30 07:26:31;;;;;;;10.27;1.88;;;16.90;99.90;;;;;;5048026;28;20041;-67
2023/07/30 07:28:57;;;;;;;13.68;2.50;;;17.00;99.90;;;;;;5066415;28;20501;-67
2023/07/30 07:31:23;;;;;;;12.88;2.47;;;17.00;99.90;;;;;;5066555;28;20120;-66
2023/07/30 07:33:49;;;;;;;11.13;2.28;;;17.10;99.90;;;;;;5066137;28;20125;-66
2023/07/30 07:36:15;;;;;;;6.43;2.22;;;17.30;99.90;;;;;;5048145;28;20044;-68
2023/07/30 07:38:41;;;;;;;4.40;1.30;;;17.50;99.90;;;;;;5067276;28;20095;-66
2023/07/30 07:41:07;;;;;;;7.00;1.58;;;17.60;99.90;;;;;;5065960;28;20414;-66
2023/07/30 07:43:33;;;;;;;7.05;1.33;;;17.90;99.90;;;;;;5048479;28;20128;-67
2023/07/30 07:45:59;;;;;;;8.02;2.03;;;18.10;99.90;;;;;;5065845;28;20059;-67
2023/07/30 07:48:24;;;;;;;9.18;1.88;;;18.30;99.90;;;;;;5048281;28;20049;-67
2023/07/30 07:50:50;;;;;;;14.27;2.42;;;18.40;99.90;;;;;;5066009;28;20051;-67
2023/07/30 07:53:16;;;;;;;12.52;1.98;;;18.60;99.90;;;;;;5066212;28;20402;-66
2023/07/30 07:55:42;;;;;;;11.18;1.90;;;19.00;99.90;;;;;;5031373;28;20044;-67
2023/07/30 07:58:08;;;;;;;5.20;1.48;;;19.50;99.90;;;;;;5064512;28;20049;-67
2023/07/30 08:00:34;;;;;;;7.30;2.08;;;20.10;99.90;;;;;;5066615;28;20045;-66
2023/07/30 08:02:59;;;;;;;10.07;1.67;;;20.20;99.90;;;;;;5066286;28;20052;-66
2023/07/30 08:05:26;;;;;;;10.77;1.92;;;20.20;99.20;;;;;;5047980;28;20048;-67
2023/07/30 08:07:52;;;;;;;13.65;2.03;;;20.10;99.30;;;;;;5046448;28;20047;-66
2023/07/30 08:10:18;;;;;;;5.78;1.60;;;20.10;96.20;;;;;;5055058;28;20124;-66
2023/07/30 08:12:43;;;;;;;13.18;3.40;;;20.00;95.70;;;;;;5063510;28;20059;-66
2023/07/30 08:15:09;;;;;;;10.00;1.77;;;19.90;96.20;;;;;;5047191;28;20049;-67
2023/07/30 08:17:35;;;;;;;10.95;2.22;;;19.80;94.70;;;;;;5066001;28;20044;-66
2023/07/30 08:20:01;;;;;;;9.63;2.58;;;19.80;98.10;;;;;;5065863;28;20102;-67
2023/07/30 08:22:27;;;;;;;6.88;1.85;;;20.00;97.10;;;;;;5066595;28;20062;-66
2023/07/30 08:24:52;;;;;;;4.78;1.45;;;20.10;93.70;;;;;;5065965;28;20082;-67
2023/07/30 08:27:18;;;;;;;5.97;1.45;;;20.00;90.10;;;;;;5066311;28;20048;-67
2023/07/30 08:29:45;;;;;;;10.25;1.52;;;20.10;91.70;;;;;;5065901;28;20044;-66
2023/07/30 08:32:10;;;;;;;5.75;1.38;;;20.20;86.20;;;;;;5034070;28;20482;-66
2023/07/30 08:34:36;;;;;;;6.60;1.95;;;20.50;87.60;;;;;;5043676;28;20051;-66
2023/07/30 08:37:02;;;;;;;9.15;2.33;;;20.80;83.70;;;;;;5041853;28;20090;-66
2023/07/30 08:39:28;;;;;;;6.63;1.35;;;20.90;75.10;;;;;;5037243;28;20032;-66
2023/07/30 08:41:54;;;;;;;13.93;2.20;;;20.80;67.30;;;;;;5052390;28;20032;-66
2023/07/30 08:44:20;;;;;;;6.55;1.40;;;20.50;61.50;;;;;;5064907;28;20549;-67
2023/07/30 08:46:46;;;;;;;5.45;1.48;;;20.20;69.50;;;;;;5043103;28;20048;-67
2023/07/30 08:49:11;;;;;;;5.22;1.48;;;19.80;33.60;;;;;;5040137;28;20032;-68
2023/07/30 08:51:38;;;;;;;6.90;1.92;;;19.60;30.60;;;;;;5065767;28;20116;-67
2023/07/30 08:54:04;;;;;;;6.00;1.30;;;19.40;18.10;;;;;;5069671;28;20220;-66
2023/07/30 08:56:31;;;;;;;3.83;1.20;;;19.30;18.80;;;;;;5070172;28;20037;-67
2023/07/30 08:58:59;;;;;;;9.52;2.05;;;19.20;18.20;;;;;;5070118;28;20094;-67
2023/07/30 09:01:33;;;;;;;4.32;1.27;;;19.10;12.00;;;;;;5069181;28;20452;-67
2023/07/30 09:04:00;;;;;;;7.07;1.70;;;19.00;14.90;;;;;;5051788;28;20443;-67
2023/07/30 09:06:26;;;;;;;5.93;1.50;;;19.00;12.90;;;;;;5035121;28;20060;-67
2023/07/30 09:08:52;;;;;;;6.13;1.67;;;18.90;12.50;;;;;;5069655;28;20501;-67
2023/07/30 09:11:18;;;;;;;4.38;1.02;;;18.90;26.50;;;;;;5041251;28;20597;-66
2023/07/30 09:13:44;;;;;;;3.15;0.75;;;18.90;26.80;;;;;;5052171;28;20486;-66
2023/07/30 09:16:11;;;;;;;6.90;1.40;;;18.80;29.70;;;;;;5068568;28;20047;-68
2023/07/30 09:18:49;;;;;;;7.65;1.40;;;18.80;26.30;;;;;;5031942;28;20044;-66
2023/07/30 09:21:15;;;;;;;4.00;1.15;;;18.70;24.00;;;;;;5050805;28;20041;-67
2023/07/30 09:23:47;;;;;;;6.13;1.00;;;18.60;29.50;;;;;;5051781;28;20122;-66
2023/07/30 09:26:13;;;;;;;4.60;0.85;;;18.60;35.10;;;;;;5068848;28;20041;-66
2023/07/30 09:28:42;;;;;;;9.18;2.55;;;18.60;40.80;;;;;;5069467;28;20048;-66
2023/07/30 09:31:09;;;;;;;5.18;1.27;;;18.50;40.60;;;;;;5068323;28;20118;-66
2023/07/30 09:33:40;;;;;;;7.72;1.95;;;18.50;43.30;;;;;;5068207;28;20517;-67
2023/07/30 09:36:07;;;;;;;4.20;0.95;;;18.50;45.40;;;;;;5068790;28;20048;-67
2023/07/30 09:38:39;;;;;;;4.75;0.90;;;18.50;41.30;;;;;;5069155;28;20045;-66
2023/07/30 09:41:05;;;;;;;2.20;0.80;;;18.60;47.60;;;;;;5050675;28;20522;-67
2023/07/30 09:43:35;;;;;;;5.80;1.35;;;18.70;48.40;;;;;;5049468;28;20048;-65
2023/07/30 09:46:07;;;;;;;6.82;1.30;;;19.10;50.00;;;;;;5068578;28;20127;-65
2023/07/30 09:48:34;;;;;;;4.95;1.17;;;19.40;43.80;;;;;;5051730;28;20143;-65
2023/07/30 09:51:02;;;;;;;4.88;1.30;;;19.50;43.70;;;;;;5068742;28;20100;-66
2023/07/30 09:53:35;;;;;;;4.68;1.17;;;19.50;27.10;;;;;;5064966;28;20052;-65
2023/07/30 09:56:07;;;;;;;3.67;1.00;;;19.40;30.20;;;;;;5047778;28;20056;-65
2023/07/30 09:58:32;;;;;;;7.72;1.52;;;19.20;31.40;;;;;;5060605;28;20064;-65
2023/07/30 10:01:00;;;;;;;9.43;1.40;;;19.00;35.50;;;;;;5045642;28;20040;-65
2023/07/30 10:03:26;;;;;;;10.27;1.48;;;18.90;44.70;;;;;;5045564;28;20291;-65
2023/07/30 10:06:01;;;;;;;6.43;1.50;;;18.80;59.90;;;;;;5051947;28;20087;-65
2023/07/30 10:08:31;;;;;;;7.20;1.50;;;18.70;66.00;;;;;;5043785;28;20060;-66
2023/07/30 10:10:58;;;;;;;5.40;1.20;;;18.70;76.50;;;;;;5054404;28;20037;-65
2023/07/30 10:13:25;;;;;;;4.00;1.13;;;18.70;75.70;;;;;;5047675;28;20064;-65
2023/07/30 10:15:52;;;;;;;5.55;1.30;;;18.70;78.90;;;;;;5062937;28;20044;-65
2023/07/30 10:18:19;;;;;;;9.00;1.58;;;18.70;84.10;;;;;;5064743;28;20049;-65
2023/07/30 10:20:55;;;;;;;3.33;1.23;;;18.80;82.20;;;;;;5058829;28;20434;-66
2023/07/30 10:23:20;;;;;;;7.32;1.40;;;18.80;78.80;;;;;;5058907;28;20132;-65
2023/07/30 10:25:52;;;;;;;4.90;1.33;;;18.80;84.60;;;;;;5067612;28;20076;-65
2023/07/30 10:28:30;;;;;;;4.00;1.42;;;18.70;78.40;;;;;;5067663;28;20048;-65
2023/07/30 10:30:57;;;;;;;1.88;0.70;;;18.60;80.00;;;;;;5068022;28;20044;-65
2023/07/30 10:33:22;;;;;;;4.30;1.15;;;18.60;79.50;;;;;;5066832;28;20048;-66
2023/07/30 10:35:53;;;;;;;4.82;1.05;;;18.60;79.10;;;;;;5049428;28;20052;-66
2023/07/30 10:38:39;;;;;;;2.90;0.70;;;18.50;81.50;;;;;;5067436;28;20450;-66
2023/07/30 10:41:10;;;;;;;3.72;0.85;;;18.50;78.80;;;;;;5050176;28;20055;-66
2023/07/30 10:43:38;;;;;;;4.07;1.20;;;18.50;79.60;;;;;;5067617;28;20052;-66
2023/07/30 10:46:04;;;;;;;1.15;0.50;;;18.50;80.70;;;;;;5067053;28;20055;-66
2023/07/30 10:48:36;;;;;;;2.08;1.00;;;18.50;83.80;;;;;;5067302;28;20359;-66
2023/07/30 10:51:04;;;;;;;2.25;0.98;;;18.50;82.60;;;;;;5049556;28;20061;-66
2023/07/30 10:53:30;;;;;;;4.73;1.17;;;18.50;79.60;;;;;;5067633;28;20068;-66
2023/07/30 10:56:02;;;;;;;2.15;0.80;;;18.50;78.70;;;;;;5067496;28;20072;-66
2023/07/30 10:58:31;;;;;;;3.67;0.75;;;18.60;81.70;;;;;;5046069;28;20390;-89
2023/07/30 11:00:57;;;;;;;5.43;0.88;;;18.90;82.20;;;;;;5067514;28;20046;-66
2023/07/30 11:03:27;;;;;;;3.70;1.02;;;19.20;81.40;;;;;;5045022;28;20047;-66
2023/07/30 11:05:54;;;;;;;5.15;1.30;;;19.30;68.70;;;;;;5064808;28;20051;-67
2023/07/30 11:08:21;;;;;;;9.02;1.98;;;19.40;62.60;;;;;;5065862;28;20078;-66
2023/07/30 11:10:47;;;;;;;2.22;1.00;;;19.30;57.70;;;;;;5034441;28;20483;-66
2023/07/30 11:13:15;;;;;;;7.65;1.20;;;19.20;58.90;;;;;;5067216;28;20093;-66
2023/07/30 11:15:42;;;;;;;6.55;1.02;;;19.10;61.70;;;;;;5066825;28;20075;-67
2023/07/30 11:18:08;;;;;;;6.28;1.30;;;19.10;70.30;;;;;;5066353;28;20036;-66
2023/07/30 11:20:34;;;;;;;3.50;1.38;;;19.10;74.80;;;;;;5065944;28;20137;-66
2023/07/30 11:23:00;;;;;;;5.22;1.10;;;19.00;71.70;;;;;;5066798;28;20473;-66
2023/07/30 11:25:26;;;;;;;4.80;0.85;;;19.00;75.30;;;;;;5032304;28;20045;-66
2023/07/30 11:27:52;;;;;;;5.47;1.30;;;19.00;74.20;;;;;;5066532;28;20551;-66
2023/07/30 11:30:19;;;;;;;4.20;1.00;;;19.00;74.50;;;;;;5065205;28;20368;-66
2023/07/30 11:32:45;;;;;;;8.18;1.52;;;19.00;76.20;;;;;;5066474;28;20086;-69
2023/07/30 11:35:13;;;;;;;5.95;1.60;;;19.10;75.40;;;;;;5067047;28;20048;-71
2023/07/30 11:37:42;;;;;;;5.43;1.00;;;19.20;80.30;;;;;;5032447;28;20481;-66
2023/07/30 11:40:10;;;;;;;3.72;1.10;;;19.30;75.30;;;;;;5049218;28;20117;-66
2023/07/30 11:42:42;;;;;;;7.68;1.15;;;19.40;78.40;;;;;;5063646;28;20076;-66
2023/07/30 11:45:37;;;;;;;4.65;0.73;;;19.60;79.00;;;;;;5065635;28;20498;-72
2023/07/30 11:48:11;;;;;;;3.85;0.88;;;19.80;79.10;;;;;;5028138;28;20091;-66
2023/07/30 11:50:52;;;;;;;8.32;2.17;;;19.90;80.60;;;;;;5064280;28;20497;-76
2023/07/30 11:53:19;;;;;;;5.22;1.48;;;20.20;69.30;;;;;;5043895;28;20048;-66
2023/07/30 11:55:46;;;;;;;7.35;1.45;;;20.40;56.10;;;;;;5065977;28;20455;-66
2023/07/30 11:58:12;;;;;;;9.30;2.00;;;20.60;53.60;;;;;;5048713;28;20063;-66
2023/07/30 12:00:43;;;;;;;3.78;1.30;;;20.60;42.40;;;;;;5061139;28;20052;-66
2023/07/30 12:03:13;;;;;;;6.55;1.40;;;20.60;49.90;;;;;;5024951;28;20385;-66
2023/07/30 12:05:40;;;;;;;6.18;1.17;;;20.70;57.20;;;;;;5043918;28;20083;-66
2023/07/30 12:08:12;;;;;;;3.53;1.63;;;20.90;24.10;;;;;;5065161;28;20076;-66
2023/07/30 12:10:45;;;;;;;7.13;1.27;;;21.00;23.20;;;;;;5060499;28;20551;-67
2023/07/30 12:13:17;;;;;;;5.28;1.55;;;21.00;10.20;;;;;;5066309;28;20056;-66
2023/07/30 12:15:52;;;;;;;8.48;1.20;;;21.10;14.80;;;;;;5065719;28;20063;-66
2023/07/30 12:18:18;;;;;;;3.85;1.10;;;21.00;4.80;;;;;;5066316;28;20048;-67
2023/07/30 12:20:45;;;;;;;3.60;1.25;;;20.80;6.40;;;;;;5047564;28;20482;-66
2023/07/30 12:23:10;;;;;;;9.82;1.90;;;20.60;6.80;;;;;;5048295;28;20414;-66
2023/07/30 12:25:36;;;;;;;4.00;1.65;;;20.40;9.90;;;;;;5044832;28;20052;-66
2023/07/30 12:28:02;;;;;;;4.45;1.55;;;20.20;10.50;;;;;;5068297;28;20065;-65
2023/07/30 12:30:28;;;;;;;8.50;1.60;;;20.20;14.70;;;;;;5069681;28;20436;-66
2023/07/30 12:32:54;;;;;;;2.60;0.98;;;20.30;10.10;;;;;;5052031;28;20394;-66
2023/07/30 12:35:21;;;;;;;4.97;0.98;;;20.40;8.40;;;;;;5052309;28;20068;-66
2023/07/30 12:37:47;;;;;;;11.50;1.38;;;20.40;10.00;;;;;;5062190;28;20413;-66
2023/07/30 12:40:12;;;;;;;5.60;1.30;;;20.20;1.00;;;;;;5062905;28;20033;-66